sensor_id;sensor_type;location;lat;lon;timestamp;temperature;humidity
55642;DHT22;41509;53.108;6.100;2023-11-21T00:02:00;9.90;99.90
55642;DHT22;41509;53.108;6.100;2023-11-21T00:04:26;9.90;99.90
55642;DHT22;41509;53.108;6.100;2023-11-21T00:06:54;9.90;99.90
55642;DHT22;41509;53.108;6.100;2023-11-21T00:09:23;9.90;99.90
55642;DHT22;41509;53.108;6.100;2023-11-21T00:11:48;9.90;99.90
55642;DHT22;41509;53.108;6.100;2023-11-21T00:14:17;9.90;99.90
55642;DHT22;41509;53.108;6.100;2023-11-21T00:16:43;9.90;99.90
55642;DHT22;41509;53.108;6.100;2023-11-21T00:19:09;9.90;99.90
55642;DHT22;41509;53.108;6.100;2023-11-21T00:21:34;9.90;99.90
55642;DHT22;41509;53.108;6.100;2023-11-21T00:24:00;9.90;99.90
55642;DHT22;41509;53.108;6.100;2023-11-21T00:26:25;9.90;99.90
55642;DHT22;41509;53.108;6.100;2023-11-21T00:28:51;9.90;99.90
55642;DHT22;41509;53.108;6.100;2023-11-21T00:31:20;9.90;99.90
55642;DHT22;41509;53.108;6.100;2023-11-21T00:33:49;9.90;99.90
55642;DHT22;41509;53.108;6.100;2023-11-21T00:36:15;9.90;99.90
55642;DHT22;41509;53.108;6.100;2023-11-21T00:38:43;9.90;99.90
55642;DHT22;41509;53.108;6.100;2023-11-21T00:41:08;9.90;99.90
55642;DHT22;41509;53.108;6.100;2023-11-21T00:43:40;9.90;99.90
55642;DHT22;41509;53.108;6.100;2023-11-21T00:46:06;9.90;99.90
55642;DHT22;41509;53.108;6.100;2023-11-21T00:48:38;9.90;99.90
55642;DHT22;41509;53.108;6.100;2023-11-21T00:51:10;9.90;99.90
55642;DHT22;41509;53.108;6.100;2023-11-21T00:53:36;9.90;99.90
55642;DHT22;41509;53.108;6.100;2023-11-21T00:56:05;9.90;99.90
55642;DHT22;41509;53.108;6.100;2023-11-21T00:58:31;9.90;99.90
55642;DHT22;41509;53.108;6.100;2023-11-21T01:00:56;9.90;99.90
55642;DHT22;41509;53.108;6.100;2023-11-21T01:03:25;9.90;99.90
55642;DHT22;41509;53.108;6.100;2023-11-21T01:05:56;9.90;99.90
55642;DHT22;41509;53.108;6.100;2023-11-21T01:08:22;9.90;99.90
55642;DHT22;41509;53.108;6.100;2023-11-21T01:10:49;9.90;99.90
55642;DHT22;41509;53.108;6.100;2023-11-21T01:13:15;9.90;99.90
55642;DHT22;41509;53.108;6.100;2023-11-21T01:15:42;9.90;99.90
55642;DHT22;41509;53.108;6.100;2023-11-21T01:18:07;10.00;99.90
55642;DHT22;41509;53.108;6.100;2023-11-21T01:20:34;10.00;99.90
55642;DHT22;41509;53.108;6.100;2023-11-21T01:23:00;10.00;99.90
55642;DHT22;41509;53.108;6.100;2023-11-21T01:25:29;10.10;99.90
55642;DHT22;41509;53.108;6.100;2023-11-21T01:27:56;10.00;99.90
55642;DHT22;41509;53.108;6.100;2023-11-21T01:30:22;10.10;99.90
55642;DHT22;41509;53.108;6.100;2023-11-21T01:32:48;10.00;99.90
55642;DHT22;41509;53.108;6.100;2023-11-21T01:35:14;10.00;99.90
55642;DHT22;41509;53.108;6.100;2023-11-21T01:37:40;10.10;99.90
55642;DHT22;41509;53.108;6.100;2023-11-21T01:40:06;10.10;99.90
55642;DHT22;41509;53.108;6.100;2023-11-21T01:42:36;10.10;99.90
55642;DHT22;41509;53.108;6.100;2023-11-21T01:45:02;10.00;99.90
55642;DHT22;41509;53.108;6.100;2023-11-21T01:47:34;10.00;99.90
55642;DHT22;41509;53.108;6.100;2023-11-21T01:50:02;10.10;99.90
55642;DHT22;41509;53.108;6.100;2023-11-21T01:52:32;10.10;99.90
55642;DHT22;41509;53.108;6.100;2023-11-21T01:55:01;10.10;99.90
55642;DHT22;41509;53.108;6.100;2023-11-21T01:57:29;10.10;99.90
55642;DHT22;41509;53.108;6.100;2023-11-21T01:59:56;10.10;99.90
55642;DHT22;41509;53.108;6.100;2023-11-21T02:02:24;10.20;99.90
55642;DHT22;41509;53.108;6.100;2023-11-21T02:04:50;10.20;99.90
55642;DHT22;41509;53.108;6.100;2023-11-21T02:07:15;10.10;99.90
55642;DHT22;41509;53.108;6.100;2023-11-21T02:09:44;10.20;99.90
55642;DHT22;41509;53.108;6.100;2023-11-21T02:12:11;10.20;99.90
55642;DHT22;41509;53.108;6.100;2023-11-21T02:14:37;10.20;99.90
55642;DHT22;41509;53.108;6.100;2023-11-21T02:17:06;10.20;99.90
55642;DHT22;41509;53.108;6.100;2023-11-21T02:19:32;10.20;99.90
55642;DHT22;41509;53.108;6.100;2023-11-21T02:21:59;10.20;99.90
55642;DHT22;41509;53.108;6.100;2023-11-21T02:24:28;10.20;99.90
55642;DHT22;41509;53.108;6.100;2023-11-21T02:26:54;10.20;99.90
55642;DHT22;41509;53.108;6.100;2023-11-21T02:29:21;10.10;99.90
55642;DHT22;41509;53.108;6.100;2023-11-21T02:31:54;10.30;99.90
55642;DHT22;41509;53.108;6.100;2023-11-21T02:34:21;10.30;99.90
55642;DHT22;41509;53.108;6.100;2023-11-21T02:36:49;10.30;99.90
55642;DHT22;41509;53.108;6.100;2023-11-21T02:39:21;10.20;99.90
55642;DHT22;41509;53.108;6.100;2023-11-21T02:41:52;10.30;99.90
55642;DHT22;41509;53.108;6.100;2023-11-21T02:44:20;10.30;99.90
55642;DHT22;41509;53.108;6.100;2023-11-21T02:46:45;10.30;99.90
55642;DHT22;41509;53.108;6.100;2023-11-21T02:49:12;10.30;99.90
55642;DHT22;41509;53.108;6.100;2023-11-21T02:51:37;10.30;99.90
55642;DHT22;41509;53.108;6.100;2023-11-21T02:54:05;10.30;99.90
55642;DHT22;41509;53.108;6.100;2023-11-21T02:56:32;10.30;99.90
55642;DHT22;41509;53.108;6.100;2023-11-21T02:59:00;10.30;99.90
55642;DHT22;41509;53.108;6.100;2023-11-21T03:01:26;10.40;99.90
55642;DHT22;41509;53.108;6.100;2023-11-21T03:03:55;10.40;99.90
55642;DHT22;41509;53.108;6.100;2023-11-21T03:06:22;10.40;99.90
55642;DHT22;41509;53.108;6.100;2023-11-21T03:08:48;10.40;99.90
55642;DHT22;41509;53.108;6.100;2023-11-21T03:11:14;10.30;99.90
55642;DHT22;41509;53.108;6.100;2023-11-21T03:13:43;10.40;99.90
55642;DHT22;41509;53.108;6.100;2023-11-21T03:16:12;10.40;99.90
55642;DHT22;41509;53.108;6.100;2023-11-21T03:18:43;10.40;99.90
55642;DHT22;41509;53.108;6.100;2023-11-21T03:21:09;10.40;99.90
55642;DHT22;41509;53.108;6.100;2023-11-21T03:23:36;10.40;99.90
55642;DHT22;41509;53.108;6.100;2023-11-21T03:26:02;10.40;99.90
55642;DHT22;41509;53.108;6.100;2023-11-21T03:28:31;10.40;99.90
55642;DHT22;41509;53.108;6.100;2023-11-21T03:30:56;10.40;99.90
55642;DHT22;41509;53.108;6.100;2023-11-21T03:33:22;10.30;99.90
55642;DHT22;41509;53.108;6.100;2023-11-21T03:35:48;10.40;99.90
55642;DHT22;41509;53.108;6.100;2023-11-21T03:38:17;10.40;99.90
55642;DHT22;41509;53.108;6.100;2023-11-21T03:40:45;10.40;99.90
55642;DHT22;41509;53.108;6.100;2023-11-21T03:43:11;10.40;99.90
55642;DHT22;41509;53.108;6.100;2023-11-21T03:45:36;10.40;99.90
55642;DHT22;41509;53.108;6.100;2023-11-21T03:48:02;10.40;99.90
55642;DHT22;41509;53.108;6.100;2023-11-21T03:50:29;10.40;99.90
55642;DHT22;41509;53.108;6.100;2023-11-21T03:52:54;10.40;99.90
55642;DHT22;41509;53.108;6.100;2023-11-21T03:55:20;10.40;99.90
55642;DHT22;41509;53.108;6.100;2023-11-21T03:57:46;10.40;99.90
55642;DHT22;41509;53.108;6.100;2023-11-21T04:00:11;10.40;99.90
55642;DHT22;41509;53.108;6.100;2023-11-21T04:02:38;10.40;99.90
55642;DHT22;41509;53.108;6.100;2023-11-21T04:05:08;10.40;99.90
55642;DHT22;41509;53.108;6.100;2023-11-21T04:07:35;10.40;99.90
55642;DHT22;41509;53.108;6.100;2023-11-21T04:10:03;10.40;99.90
55642;DHT22;41509;53.108;6.100;2023-11-21T04:12:29;10.40;99.90
55642;DHT22;41509;53.108;6.100;2023-11-21T04:14:55;10.40;99.90
55642;DHT22;41509;53.108;6.100;2023-11-21T04:17:20;10.40;99.90
55642;DHT22;41509;53.108;6.100;2023-11-21T04:19:48;10.30;99.90
55642;DHT22;41509;53.108;6.100;2023-11-21T04:22:14;10.30;99.90
55642;DHT22;41509;53.108;6.100;2023-11-21T04:24:45;10.30;99.90
55642;DHT22;41509;53.108;6.100;2023-11-21T04:27:10;10.30;99.90
55642;DHT22;41509;53.108;6.100;2023-11-21T04:29:36;10.30;99.90
55642;DHT22;41509;53.108;6.100;2023-11-21T04:32:01;10.30;99.90
55642;DHT22;41509;53.108;6.100;2023-11-21T04:34:28;10.30;99.90
55642;DHT22;41509;53.108;6.100;2023-11-21T04:36:56;10.30;99.90
55642;DHT22;41509;53.108;6.100;2023-11-21T04:39:22;10.30;99.90
55642;DHT22;41509;53.108;6.100;2023-11-21T04:41:51;10.30;99.90
55642;DHT22;41509;53.108;6.100;2023-11-21T04:44:16;10.20;99.90
55642;DHT22;41509;53.108;6.100;2023-11-21T04:46:42;10.20;99.90
55642;DHT22;41509;53.108;6.100;2023-11-21T04:49:08;10.20;99.90
55642;DHT22;41509;53.108;6.100;2023-11-21T04:51:34;10.20;99.90
55642;DHT22;41509;53.108;6.100;2023-11-21T04:53:59;10.20;99.90
55642;DHT22;41509;53.108;6.100;2023-11-21T04:56:25;10.20;99.90
55642;DHT22;41509;53.108;6.100;2023-11-21T04:58:58;10.10;99.90
55642;DHT22;41509;53.108;6.100;2023-11-21T05:01:24;10.10;99.90
55642;DHT22;41509;53.108;6.100;2023-11-21T05:03:49;10.10;99.90
55642;DHT22;41509;53.108;6.100;2023-11-21T05:06:15;10.10;99.90
55642;DHT22;41509;53.108;6.100;2023-11-21T05:08:43;10.10;99.90
55642;DHT22;41509;53.108;6.100;2023-11-21T05:11:09;10.10;99.90
55642;DHT22;41509;53.108;6.100;2023-11-21T05:13:36;10.10;99.90
55642;DHT22;41509;53.108;6.100;2023-11-21T05:16:03;10.10;99.90
55642;DHT22;41509;53.108;6.100;2023-11-21T05:18:32;10.10;99.90
55642;DHT22;41509;53.108;6.100;2023-11-21T05:21:02;10.10;99.90
55642;DHT22;41509;53.108;6.100;2023-11-21T05:23:28;10.00;99.90
55642;DHT22;41509;53.108;6.100;2023-11-21T05:25:54;10.10;99.90
55642;DHT22;41509;53.108;6.100;2023-11-21T05:28:25;10.10;99.90
55642;DHT22;41509;53.108;6.100;2023-11-21T05:30:51;10.10;99.90
55642;DHT22;41509;53.108;6.100;2023-11-21T05:33:16;10.10;99.90
55642;DHT22;41509;53.108;6.100;2023-11-21T05:35:45;10.00;99.90
55642;DHT22;41509;53.108;6.100;2023-11-21T05:38:11;10.00;99.90
55642;DHT22;41509;53.108;6.100;2023-11-21T05:40:37;10.10;99.90
55642;DHT22;41509;53.108;6.100;2023-11-21T05:43:03;10.10;99.90
55642;DHT22;41509;53.108;6.100;2023-11-21T05:45:30;10.00;99.90
55642;DHT22;41509;53.108;6.100;2023-11-21T05:47:57;10.00;99.90
55642;DHT22;41509;53.108;6.100;2023-11-21T05:50:22;10.00;99.90
55642;DHT22;41509;53.108;6.100;2023-11-21T05:52:48;10.00;99.90
55642;DHT22;41509;53.108;6.100;2023-11-21T05:55:17;10.00;99.90
55642;DHT22;41509;53.108;6.100;2023-11-21T05:57:43;10.00;99.90
55642;DHT22;41509;53.108;6.100;2023-11-21T06:00:13;10.00;99.90
55642;DHT22;41509;53.108;6.100;2023-11-21T06:02:51;9.90;99.90
55642;DHT22;41509;53.108;6.100;2023-11-21T06:05:18;9.90;99.90
55642;DHT22;41509;53.108;6.100;2023-11-21T06:07:44;9.90;99.90
55642;DHT22;41509;53.108;6.100;2023-11-21T06:10:11;9.90;99.90
55642;DHT22;41509;53.108;6.100;2023-11-21T06:12:40;9.90;99.90
55642;DHT22;41509;53.108;6.100;2023-11-21T06:15:09;9.90;99.90
55642;DHT22;41509;53.108;6.100;2023-11-21T06:17:35;9.90;99.90
55642;DHT22;41509;53.108;6.100;2023-11-21T06:20:06;9.80;99.90
55642;DHT22;41509;53.108;6.100;2023-11-21T06:22:42;9.80;99.90
55642;DHT22;41509;53.108;6.100;2023-11-21T06:25:08;9.80;99.90
55642;DHT22;41509;53.108;6.100;2023-11-21T06:27:38;9.80;99.90
55642;DHT22;41509;53.108;6.100;2023-11-21T06:30:05;9.90;99.90
55642;DHT22;41509;53.108;6.100;2023-11-21T06:32:32;9.80;99.90
55642;DHT22;41509;53.108;6.100;2023-11-21T06:34:58;9.80;99.90
55642;DHT22;41509;53.108;6.100;2023-11-21T06:37:30;9.70;99.90
55642;DHT22;41509;53.108;6.100;2023-11-21T06:39:56;9.70;99.90
55642;DHT22;41509;53.108;6.100;2023-11-21T06:42:26;9.70;99.90
55642;DHT22;41509;53.108;6.100;2023-11-21T06:44:53;9.70;99.90
55642;DHT22;41509;53.108;6.100;2023-11-21T06:47:32;9.80;99.90
55642;DHT22;41509;53.108;6.100;2023-11-21T06:49:58;9.80;99.90
55642;DHT22;41509;53.108;6.100;2023-11-21T06:52:24;9.80;99.90
55642;DHT22;41509;53.108;6.100;2023-11-21T06:54:50;9.70;99.90
55642;DHT22;41509;53.108;6.100;2023-11-21T06:57:16;9.70;99.90
55642;DHT22;41509;53.108;6.100;2023-11-21T06:59:41;9.70;99.90
55642;DHT22;41509;53.108;6.100;2023-11-21T07:02:09;9.70;99.90
55642;DHT22;41509;53.108;6.100;2023-11-21T07:04:38;9.70;99.90
55642;DHT22;41509;53.108;6.100;2023-11-21T07:07:04;9.70;99.90
55642;DHT22;41509;53.108;6.100;2023-11-21T07:09:30;9.70;99.90
55642;DHT22;41509;53.108;6.100;2023-11-21T07:11:56;9.70;99.90
55642;DHT22;41509;53.108;6.100;2023-11-21T07:14:22;9.70;99.90
55642;DHT22;41509;53.108;6.100;2023-11-21T07:17:06;9.70;99.90
55642;DHT22;41509;53.108;6.100;2023-11-21T07:19:32;9.70;99.90
55642;DHT22;41509;53.108;6.100;2023-11-21T07:21:57;9.70;99.90
55642;DHT22;41509;53.108;6.100;2023-11-21T07:24:23;9.70;99.90
55642;DHT22;41509;53.108;6.100;2023-11-21T07:26:48;9.60;99.90
55642;DHT22;41509;53.108;6.100;2023-11-21T07:29:17;9.70;99.90
55642;DHT22;41509;53.108;6.100;2023-11-21T07:31:43;9.60;99.90
55642;DHT22;41509;53.108;6.100;2023-11-21T07:34:09;9.60;99.90
55642;DHT22;41509;53.108;6.100;2023-11-21T07:36:35;9.60;99.90
55642;DHT22;41509;53.108;6.100;2023-11-21T07:39:00;9.60;99.90
55642;DHT22;41509;53.108;6.100;2023-11-21T07:41:28;9.60;99.90
55642;DHT22;41509;53.108;6.100;2023-11-21T07:43:54;9.60;99.90
55642;DHT22;41509;53.108;6.100;2023-11-21T07:46:24;9.60;99.90
55642;DHT22;41509;53.108;6.100;2023-11-21T07:48:51;9.60;99.90
55642;DHT22;41509;53.108;6.100;2023-11-21T07:51:20;9.60;99.90
55642;DHT22;41509;53.108;6.100;2023-11-21T07:53:46;9.60;99.90
55642;DHT22;41509;53.108;6.100;2023-11-21T07:56:11;9.60;99.90
55642;DHT22;41509;53.108;6.100;2023-11-21T07:58:38;9.60;99.90
55642;DHT22;41509;53.108;6.100;2023-11-21T08:01:04;9.70;99.90
55642;DHT22;41509;53.108;6.100;2023-11-21T08:03:30;9.60;99.90
55642;DHT22;41509;53.108;6.100;2023-11-21T08:05:57;9.60;99.90
55642;DHT22;41509;53.108;6.100;2023-11-21T08:08:23;9.50;99.90
55642;DHT22;41509;53.108;6.100;2023-11-21T08:10:50;9.50;99.90
55642;DHT22;41509;53.108;6.100;2023-11-21T08:13:25;9.60;99.90
55642;DHT22;41509;53.108;6.100;2023-11-21T08:15:54;9.50;99.90
55642;DHT22;41509;53.108;6.100;2023-11-21T08:18:20;9.40;99.90
55642;DHT22;41509;53.108;6.100;2023-11-21T08:20:45;9.40;99.90
55642;DHT22;41509;53.108;6.100;2023-11-21T08:23:17;9.30;99.90
55642;DHT22;41509;53.108;6.100;2023-11-21T08:25:46;9.30;99.90
55642;DHT22;41509;53.108;6.100;2023-11-21T08:28:13;9.30;99.90
55642;DHT22;41509;53.108;6.100;2023-11-21T08:30:42;9.30;99.90
55642;DHT22;41509;53.108;6.100;2023-11-21T08:33:08;9.30;99.90
55642;DHT22;41509;53.108;6.100;2023-11-21T08:35:39;9.30;99.90
55642;DHT22;41509;53.108;6.100;2023-11-21T08:38:05;9.30;99.90
55642;DHT22;41509;53.108;6.100;2023-11-21T08:40:30;9.30;99.90
55642;DHT22;41509;53.108;6.100;2023-11-21T08:42:57;9.30;99.90
55642;DHT22;41509;53.108;6.100;2023-11-21T08:45:25;9.20;99.90
55642;DHT22;41509;53.108;6.100;2023-11-21T08:47:51;9.20;99.90
55642;DHT22;41509;53.108;6.100;2023-11-21T08:50:17;9.20;99.90
55642;DHT22;41509;53.108;6.100;2023-11-21T08:52:44;9.20;99.90
55642;DHT22;41509;53.108;6.100;2023-11-21T08:55:11;9.20;99.90
55642;DHT22;41509;53.108;6.100;2023-11-21T08:57:41;9.20;99.90
55642;DHT22;41509;53.108;6.100;2023-11-21T09:00:08;9.20;99.90
55642;DHT22;41509;53.108;6.100;2023-11-21T09:02:38;9.20;99.90
55642;DHT22;41509;53.108;6.100;2023-11-21T09:05:07;9.30;99.90
55642;DHT22;41509;53.108;6.100;2023-11-21T09:07:34;9.30;99.90
55642;DHT22;41509;53.108;6.100;2023-11-21T09:10:01;9.30;99.90
55642;DHT22;41509;53.108;6.100;2023-11-21T09:12:27;9.30;99.90
55642;DHT22;41509;53.108;6.100;2023-11-21T09:14:53;9.20;99.90
55642;DHT22;41509;53.108;6.100;2023-11-21T09:17:19;9.20;99.90
55642;DHT22;41509;53.108;6.100;2023-11-21T09:19:44;9.20;99.90
55642;DHT22;41509;53.108;6.100;2023-11-21T09:22:15;9.30;99.90
55642;DHT22;41509;53.108;6.100;2023-11-21T09:24:42;9.30;99.90
55642;DHT22;41509;53.108;6.100;2023-11-21T09:27:08;9.30;99.90
55642;DHT22;41509;53.108;6.100;2023-11-21T09:29:34;9.40;99.90
55642;DHT22;41509;53.108;6.100;2023-11-21T09:31:59;9.50;99.90
55642;DHT22;41509;53.108;6.100;2023-11-21T09:34:26;9.50;99.90
55642;DHT22;41509;53.108;6.100;2023-11-21T09:36:53;9.50;99.90
55642;DHT22;41509;53.108;6.100;2023-11-21T09:39:19;9.50;99.90
55642;DHT22;41509;53.108;6.100;2023-11-21T09:41:59;9.50;99.90
55642;DHT22;41509;53.108;6.100;2023-11-21T09:47:17;9.50;99.90
55642;DHT22;41509;53.108;6.100;2023-11-21T09:49:49;9.50;99.90
55642;DHT22;41509;53.108;6.100;2023-11-21T09:52:24;9.50;99.90
55642;DHT22;41509;53.108;6.100;2023-11-21T09:54:54;9.50;99.90
55642;DHT22;41509;53.108;6.100;2023-11-21T09:57:23;9.50;99.90
55642;DHT22;41509;53.108;6.100;2023-11-21T09:59:52;9.50;99.90
55642;DHT22;41509;53.108;6.100;2023-11-21T10:02:26;9.50;99.90
55642;DHT22;41509;53.108;6.100;2023-11-21T10:04:53;9.50;99.90
55642;DHT22;41509;53.108;6.100;2023-11-21T10:07:20;9.50;99.90
55642;DHT22;41509;53.108;6.100;2023-11-21T10:09:47;9.50;99.90
55642;DHT22;41509;53.108;6.100;2023-11-21T10:12:15;9.50;99.90
55642;DHT22;41509;53.108;6.100;2023-11-21T10:14:42;9.40;99.90
55642;DHT22;41509;53.108;6.100;2023-11-21T10:17:10;9.50;99.90
55642;DHT22;41509;53.108;6.100;2023-11-21T10:19:39;9.50;99.90
55642;DHT22;41509;53.108;6.100;2023-11-21T10:22:06;9.50;99.90
55642;DHT22;41509;53.108;6.100;2023-11-21T10:24:35;9.50;99.90
55642;DHT22;41509;53.108;6.100;2023-11-21T10:27:04;9.60;99.90
55642;DHT22;41509;53.108;6.100;2023-11-21T10:29:30;9.60;99.90
55642;DHT22;41509;53.108;6.100;2023-11-21T10:31:57;9.60;99.90
55642;DHT22;41509;53.108;6.100;2023-11-21T10:34:24;9.60;99.90
55642;DHT22;41509;53.108;6.100;2023-11-21T10:36:50;9.60;99.90
55642;DHT22;41509;53.108;6.100;2023-11-21T10:39:20;9.60;99.90
55642;DHT22;41509;53.108;6.100;2023-11-21T10:41:49;9.60;99.90
55642;DHT22;41509;53.108;6.100;2023-11-21T10:44:16;9.60;99.90
55642;DHT22;41509;53.108;6.100;2023-11-21T10:46:50;9.50;99.90
55642;DHT22;41509;53.108;6.100;2023-11-21T10:49:23;9.40;99.90
55642;DHT22;41509;53.108;6.100;2023-11-21T10:51:51;9.50;99.90
55642;DHT22;41509;53.108;6.100;2023-11-21T10:54:23;9.40;99.90
55642;DHT22;41509;53.108;6.100;2023-11-21T10:56:54;9.30;99.90
55642;DHT22;41509;53.108;6.100;2023-11-21T10:59:22;9.30;99.90
55642;DHT22;41509;53.108;6.100;2023-11-21T11:01:51;9.20;99.90
55642;DHT22;41509;53.108;6.100;2023-11-21T11:04:19;9.20;99.90
55642;DHT22;41509;53.108;6.100;2023-11-21T11:06:56;9.20;99.90
55642;DHT22;41509;53.108;6.100;2023-11-21T11:09:23;9.10;99.90
55642;DHT22;41509;53.108;6.100;2023-11-21T11:11:48;9.10;99.90
55642;DHT22;41509;53.108;6.100;2023-11-21T11:14:15;9.00;99.90
55642;DHT22;41509;53.108;6.100;2023-11-21T11:16:42;9.00;99.90
55642;DHT22;41509;53.108;6.100;2023-11-21T11:19:09;8.90;99.90
55642;DHT22;41509;53.108;6.100;2023-11-21T11:21:43;8.90;99.90
55642;DHT22;41509;53.108;6.100;2023-11-21T11:29:53;9.00;99.90
55642;DHT22;41509;53.108;6.100;2023-11-21T11:35:33;9.10;99.90
55642;DHT22;41509;53.108;6.100;2023-11-21T11:37:59;9.10;99.90
55642;DHT22;41509;53.108;6.100;2023-11-21T11:40:44;9.30;99.90
55642;DHT22;41509;53.108;6.100;2023-11-21T11:43:10;9.40;99.90
55642;DHT22;41509;53.108;6.100;2023-11-21T11:45:37;9.50;99.90
55642;DHT22;41509;53.108;6.100;2023-11-21T11:48:17;9.60;99.90
55642;DHT22;41509;53.108;6.100;2023-11-21T11:51:05;9.60;99.90
55642;DHT22;41509;53.108;6.100;2023-11-21T11:53:51;9.70;99.90
55642;DHT22;41509;53.108;6.100;2023-11-21T11:56:33;9.70;99.90
55642;DHT22;41509;53.108;6.100;2023-11-21T11:59:04;9.70;99.90
55642;DHT22;41509;53.108;6.100;2023-11-21T12:01:33;9.80;99.90
55642;DHT22;41509;53.108;6.100;2023-11-21T12:06:41;9.80;99.90
55642;DHT22;41509;53.108;6.100;2023-11-21T12:09:12;9.80;99.90
55642;DHT22;41509;53.108;6.100;2023-11-21T12:11:41;9.90;99.90
55642;DHT22;41509;53.108;6.100;2023-11-21T12:14:09;9.90;99.90
55642;DHT22;41509;53.108;6.100;2023-11-21T12:16:35;10.00;99.90
55642;DHT22;41509;53.108;6.100;2023-11-21T12:19:01;10.00;99.90
55642;DHT22;41509;53.108;6.100;2023-11-21T12:21:28;10.00;99.90
55642;DHT22;41509;53.108;6.100;2023-11-21T12:23:54;10.00;99.90
55642;DHT22;41509;53.108;6.100;2023-11-21T12:26:23;9.90;99.90
55642;DHT22;41509;53.108;6.100;2023-11-21T12:28:53;9.90;99.90
55642;DHT22;41509;53.108;6.100;2023-11-21T12:31:23;9.80;99.90
55642;DHT22;41509;53.108;6.100;2023-11-21T12:33:49;9.80;99.90
55642;DHT22;41509;53.108;6.100;2023-11-21T12:36:16;9.90;99.90
55642;DHT22;41509;53.108;6.100;2023-11-21T12:38:42;9.90;99.90
55642;DHT22;41509;53.108;6.100;2023-11-21T12:41:09;10.00;99.90
55642;DHT22;41509;53.108;6.100;2023-11-21T12:43:35;10.00;99.90
55642;DHT22;41509;53.108;6.100;2023-11-21T12:46:11;9.90;99.90
55642;DHT22;41509;53.108;6.100;2023-11-21T12:48:43;9.90;99.90
55642;DHT22;41509;53.108;6.100;2023-11-21T12:51:10;9.80;99.90
55642;DHT22;41509;53.108;6.100;2023-11-21T12:53:40;9.80;99.90
55642;DHT22;41509;53.108;6.100;2023-11-21T12:56:15;9.90;99.90
55642;DHT22;41509;53.108;6.100;2023-11-21T12:58:45;9.80;99.90
55642;DHT22;41509;53.108;6.100;2023-11-21T13:01:16;9.80;99.90
55642;DHT22;41509;53.108;6.100;2023-11-21T13:03:47;9.60;99.90
55642;DHT22;41509;53.108;6.100;2023-11-21T13:06:17;9.50;99.90
55642;DHT22;41509;53.108;6.100;2023-11-21T13:08:44;9.40;99.90
55642;DHT22;41509;53.108;6.100;2023-11-21T13:11:13;9.40;99.90
55642;DHT22;41509;53.108;6.100;2023-11-21T13:13:41;9.30;99.90
55642;DHT22;41509;53.108;6.100;2023-11-21T13:16:08;9.30;99.90
55642;DHT22;41509;53.108;6.100;2023-11-21T13:18:35;9.20;99.90
55642;DHT22;41509;53.108;6.100;2023-11-21T13:21:02;9.20;99.90
55642;DHT22;41509;53.108;6.100;2023-11-21T13:23:34;9.30;99.90
55642;DHT22;41509;53.108;6.100;2023-11-21T13:26:01;9.30;99.90
55642;DHT22;41509;53.108;6.100;2023-11-21T13:28:29;9.40;99.90
55642;DHT22;41509;53.108;6.100;2023-11-21T13:30:58;9.50;99.90
55642;DHT22;41509;53.108;6.100;2023-11-21T13:33:28;9.60;99.90
55642;DHT22;41509;53.108;6.100;2023-11-21T13:35:54;9.60;99.90
55642;DHT22;41509;53.108;6.100;2023-11-21T13:38:22;9.60;99.90
55642;DHT22;41509;53.108;6.100;2023-11-21T13:40:54;9.60;99.90
55642;DHT22;41509;53.108;6.100;2023-11-21T13:43:23;9.60;99.90
55642;DHT22;41509;53.108;6.100;2023-11-21T13:45:51;9.60;99.90
55642;DHT22;41509;53.108;6.100;2023-11-21T13:48:24;9.60;99.90
55642;DHT22;41509;53.108;6.100;2023-11-21T13:51:07;9.60;99.90
55642;DHT22;41509;53.108;6.100;2023-11-21T13:53:46;9.50;99.90
55642;DHT22;41509;53.108;6.100;2023-11-21T13:56:15;9.50;99.90
55642;DHT22;41509;53.108;6.100;2023-11-21T13:58:49;9.40;99.90
55642;DHT22;41509;53.108;6.100;2023-11-21T14:01:20;9.40;99.90
55642;DHT22;41509;53.108;6.100;2023-11-21T14:04:03;9.40;99.90
55642;DHT22;41509;53.108;6.100;2023-11-21T14:06:46;9.40;99.90
55642;DHT22;41509;53.108;6.100;2023-11-21T14:09:21;9.30;99.90
55642;DHT22;41509;53.108;6.100;2023-11-21T14:11:52;9.30;99.90
55642;DHT22;41509;53.108;6.100;2023-11-21T14:14:19;9.30;99.90
55642;DHT22;41509;53.108;6.100;2023-11-21T14:16:46;9.20;99.90
55642;DHT22;41509;53.108;6.100;2023-11-21T14:19:11;9.20;99.90
55642;DHT22;41509;53.108;6.100;2023-11-21T14:21:46;9.20;99.90
55642;DHT22;41509;53.108;6.100;2023-11-21T14:24:12;9.20;99.90
55642;DHT22;41509;53.108;6.100;2023-11-21T14:26:40;9.20;99.90
55642;DHT22;41509;53.108;6.100;2023-11-21T14:29:14;9.10;99.90
55642;DHT22;41509;53.108;6.100;2023-11-21T14:31:45;9.10;99.90
55642;DHT22;41509;53.108;6.100;2023-11-21T14:34:10;9.20;99.90
55642;DHT22;41509;53.108;6.100;2023-11-21T14:36:38;9.10;99.90
55642;DHT22;41509;53.108;6.100;2023-11-21T14:39:07;9.20;99.90
55642;DHT22;41509;53.108;6.100;2023-11-21T14:41:35;9.20;99.90
55642;DHT22;41509;53.108;6.100;2023-11-21T14:44:03;9.10;99.90
55642;DHT22;41509;53.108;6.100;2023-11-21T14:46:30;9.10;99.90
55642;DHT22;41509;53.108;6.100;2023-11-21T14:48:57;9.00;99.90
55642;DHT22;41509;53.108;6.100;2023-11-21T14:51:40;9.10;99.90
55642;DHT22;41509;53.108;6.100;2023-11-21T14:54:26;9.00;99.90
55642;DHT22;41509;53.108;6.100;2023-11-21T14:57:06;9.00;99.90
55642;DHT22;41509;53.108;6.100;2023-11-21T14:59:42;8.90;99.90
55642;DHT22;41509;53.108;6.100;2023-11-21T15:02:08;8.80;99.90
55642;DHT22;41509;53.108;6.100;2023-11-21T15:04:42;8.80;99.90
55642;DHT22;41509;53.108;6.100;2023-11-21T15:07:08;8.80;99.90
55642;DHT22;41509;53.108;6.100;2023-11-21T15:09:34;8.70;99.90
55642;DHT22;41509;53.108;6.100;2023-11-21T15:12:00;8.60;99.90
55642;DHT22;41509;53.108;6.100;2023-11-21T15:14:49;8.60;99.90
55642;DHT22;41509;53.108;6.100;2023-11-21T15:17:18;8.50;99.90
55642;DHT22;41509;53.108;6.100;2023-11-21T15:19:53;8.50;99.90
55642;DHT22;41509;53.108;6.100;2023-11-21T15:22:19;8.40;99.90
55642;DHT22;41509;53.108;6.100;2023-11-21T15:24:45;8.40;99.90
55642;DHT22;41509;53.108;6.100;2023-11-21T15:27:13;8.50;99.90
55642;DHT22;41509;53.108;6.100;2023-11-21T15:29:43;8.40;99.90
55642;DHT22;41509;53.108;6.100;2023-11-21T15:32:09;8.40;99.90
55642;DHT22;41509;53.108;6.100;2023-11-21T15:34:36;8.40;99.90
55642;DHT22;41509;53.108;6.100;2023-11-21T15:37:02;8.40;99.90
55642;DHT22;41509;53.108;6.100;2023-11-21T15:39:29;8.40;99.90
55642;DHT22;41509;53.108;6.100;2023-11-21T15:41:59;8.30;99.90
55642;DHT22;41509;53.108;6.100;2023-11-21T15:44:25;8.30;99.90
55642;DHT22;41509;53.108;6.100;2023-11-21T15:46:55;8.30;99.90
55642;DHT22;41509;53.108;6.100;2023-11-21T15:49:22;8.30;99.90
55642;DHT22;41509;53.108;6.100;2023-11-21T15:51:50;8.20;99.90
55642;DHT22;41509;53.108;6.100;2023-11-21T15:54:21;8.20;99.90
55642;DHT22;41509;53.108;6.100;2023-11-21T15:56:47;8.20;99.90
55642;DHT22;41509;53.108;6.100;2023-11-21T15:59:14;8.10;99.90
55642;DHT22;41509;53.108;6.100;2023-11-21T16:01:42;8.00;99.90
55642;DHT22;41509;53.108;6.100;2023-11-21T16:04:14;8.00;99.90